Time;durP1;ratioP1;P1;durP2;ratioP2;P2;SDS_P1;SDS_P2;PMS_P1;PMS_P2;Temp;Humidity;BMP_temperature;BMP_pressure;BME280_temperature;BME280_humidity;BME280_pressure;Samples;Min_cycle;Max_cycle;Signal;HPM_P1;HPM_P2
2023/04/15 00:00:50;;;;;;;48.63;23.58;;;230.90;2252.80;;;;;;5051064;28;20155;-58
2023/04/15 00:03:17;;;;;;;55.45;26.77;;;230.80;2252.80;;;;;;5033443;28;20018;-59
2023/04/15 00:05:43;;;;;;;21.92;10.23;;;230.80;2252.80;;;;;;5030647;28;20037;-64
2023/04/15 00:08:09;;;;;;;5.75;3.00;;;230.80;2252.80;;;;;;5030702;28;20029;-59
2023/04/15 00:10:35;;;;;;;61.10;33.10;;;230.90;2252.80;;;;;;5030481;28;20508;-65
2023/04/15 00:13:01;;;;;;;35.92;18.80;;;230.90;2252.80;;;;;;5035839;28;20028;-64
2023/04/15 00:15:27;;;;;;;28.05;15.05;;;230.90;2252.80;;;;;;5050933;28;20033;-59
2023/04/15 00:17:53;;;;;;;23.50;12.38;;;231.00;2252.80;;;;;;5049170;28;20475;-59
2023/04/15 00:20:18;;;;;;;22.63;12.10;;;231.00;2252.80;;;;;;5050588;28;20099;-58
2023/04/15 00:22:45;;;;;;;23.75;14.68;;;231.10;2252.80;;;;;;5044084;28;20018;-64
2023/04/15 00:25:11;;;;;;;15.30;7.35;;;231.10;2252.80;;;;;;5030676;28;20021;-64
2023/04/15 00:27:37;;;;;;;13.00;7.45;;;231.10;2252.80;;;;;;5030540;28;20032;-58
2023/04/15 00:30:04;;;;;;;10.68;6.00;;;231.10;2252.80;;;;;;5030255;28;20036;-59
2023/04/15 00:32:30;;;;;;;19.38;11.50;;;231.00;2252.80;;;;;;5036611;28;20075;-58
2023/04/15 00:34:56;;;;;;;40.83;22.08;;;231.10;2252.80;;;;;;5050014;28;20021;-58
2023/04/15 00:37:22;;;;;;;36.53;18.92;;;231.10;2252.80;;;;;;5050595;28;20111;-63
2023/04/15 00:39:48;;;;;;;12.35;7.38;;;231.10;2252.80;;;;;;5050196;28;20109;-59
2023/04/15 00:42:14;;;;;;;10.93;4.82;;;231.20;2252.80;;;;;;5050199;28;20092;-60
2023/04/15 00:44:40;;;;;;;8.70;4.45;;;231.20;2252.80;;;;;;5050351;28;20124;-60
2023/04/15 00:47:06;;;;;;;8.60;4.38;;;231.20;2252.80;;;;;;5047930;28;20028;-60
2023/04/15 00:49:32;;;;;;;4.30;2.63;;;231.10;2252.80;;;;;;5049971;28;20059;-61
2023/04/15 00:51:57;;;;;;;5.63;3.20;;;231.10;2252.80;;;;;;5049429;28;20036;-60
2023/04/15 00:54:23;;;;;;;7.22;4.43;;;231.20;2252.80;;;;;;5049942;28;20436;-65
2023/04/15 00:56:49;;;;;;;24.90;19.08;;;231.20;2252.80;;;;;;5049466;28;20371;-67
2023/04/15 00:59:16;;;;;;;32.47;20.35;;;230.80;2252.80;;;;;;5049063;28;20036;-64
2023/04/15 01:01:44;;;;;;;33.97;20.45;;;230.40;2252.80;;;;;;5049576;28;20464;-62
2023/04/15 01:04:11;;;;;;;23.50;15.65;;;230.50;2252.80;;;;;;5049637;28;20100;-60
2023/04/15 01:06:36;;;;;;;55.30;36.17;;;230.60;2252.80;;;;;;5048347;28;20032;-61
2023/04/15 01:09:02;;;;;;;19.00;9.05;;;230.50;2252.80;;;;;;5049249;28;20438;-60
2023/04/15 01:11:29;;;;;;;11.25;4.25;;;230.70;2252.80;;;;;;5049565;28;20079;-67
2023/04/15 01:13:57;;;;;;;7.07;4.95;;;230.80;2252.80;;;;;;5049158;28;20481;-60
2023/04/15 01:16:23;;;;;;;5.97;3.58;;;230.80;2252.80;;;;;;5049401;28;20025;-60
2023/04/15 01:18:48;;;;;;;22.35;14.02;;;230.80;2252.80;;;;;;5049471;28;20031;-64
2023/04/15 01:21:14;;;;;;;9.50;4.57;;;230.70;2252.80;;;;;;5049177;28;20570;-60
2023/04/15 01:23:40;;;;;;;13.70;7.10;;;230.70;2252.80;;;;;;5049700;28;20106;-59
2023/04/15 01:26:08;;;;;;;68.38;30.33;;;230.80;2252.80;;;;;;5049060;28;20491;-60
2023/04/15 01:28:35;;;;;;;10.93;4.88;;;230.70;2252.80;;;;;;5048602;28;20033;-61
2023/04/15 01:31:08;;;;;;;4.72;2.47;;;230.80;2252.80;;;;;;5049397;28;20028;-60
2023/04/15 01:33:34;;;;;;;5.55;3.30;;;230.80;2252.80;;;;;;5035970;28;20025;-62
2023/04/15 01:36:00;;;;;;;3.85;2.28;;;230.90;2252.80;;;;;;5049341;28;20487;-59
2023/04/15 01:38:27;;;;;;;3.35;1.25;;;231.00;2252.80;;;;;;5049012;28;20040;-58
2023/04/15 01:40:52;;;;;;;5.43;3.38;;;231.00;2252.80;;;;;;5049040;28;20403;-61
2023/04/15 01:43:18;;;;;;;5.55;2.80;;;231.10;2252.80;;;;;;5048787;28;20025;-60
2023/04/15 01:45:44;;;;;;;3.35;1.67;;;231.10;2252.80;;;;;;5049091;28;20021;-61
2023/04/15 01:48:11;;;;;;;9.57;3.22;;;231.10;2252.80;;;;;;5049282;28;20021;-58
2023/04/15 01:50:37;;;;;;;8.48;3.92;;;231.20;2252.80;;;;;;5044229;28;20031;-60
2023/04/15 01:53:03;;;;;;;4.90;2.78;;;231.20;2252.80;;;;;;5042350;28;20530;-58
2023/04/15 01:55:29;;;;;;;2.45;1.45;;;231.20;2252.80;;;;;;5037516;28;20040;-59
2023/04/15 01:57:55;;;;;;;4.10;3.47;;;231.20;2252.80;;;;;;5048376;28;20479;-59
2023/04/15 02:00:21;;;;;;;2.17;1.45;;;231.20;2252.80;;;;;;5049181;28;20028;-59
2023/04/15 02:02:48;;;;;;;2.08;1.17;;;231.30;2252.80;;;;;;5048769;28;20029;-60
2023/04/15 02:05:14;;;;;;;2.58;1.45;;;231.30;2252.80;;;;;;5048920;28;20120;-60
2023/04/15 02:07:43;;;;;;;4.38;2.58;;;231.30;2252.80;;;;;;5048967;28;20492;-60
2023/04/15 02:10:10;;;;;;;7.60;2.90;;;231.30;2252.80;;;;;;5048748;28;20025;-61
2023/04/15 02:12:36;;;;;;;3.00;1.65;;;231.30;2252.80;;;;;;5048412;28;20037;-59
2023/04/15 02:15:01;;;;;;;2.47;1.63;;;231.30;2252.80;;;;;;5048719;28;20036;-60
2023/04/15 02:17:27;;;;;;;4.75;2.65;;;231.30;2252.80;;;;;;5047301;28;20411;-61
2023/04/15 02:19:55;;;;;;;3.35;1.98;;;231.30;2252.80;;;;;;5042621;28;20432;-59
2023/04/15 02:22:21;;;;;;;2.60;1.70;;;231.20;2252.80;;;;;;5052701;28;20099;-58
2023/04/15 02:24:47;;;;;;;6.53;3.28;;;231.20;2252.80;;;;;;5052380;28;20117;-60
2023/04/15 02:27:19;;;;;;;4.95;2.50;;;231.10;2252.80;;;;;;5052681;28;20056;-61
2023/04/15 02:29:45;;;;;;;3.53;1.55;;;231.10;2252.80;;;;;;5052416;28;20028;-58
2023/04/15 02:32:14;;;;;;;7.53;6.38;;;231.10;2252.80;;;;;;5052427;28;20095;-59
2023/04/15 02:34:41;;;;;;;3.05;1.88;;;231.10;2252.80;;;;;;5052603;28;20036;-59
2023/04/15 02:37:08;;;;;;;3.15;1.60;;;231.10;2252.80;;;;;;5039439;28;20021;-59
2023/04/15 02:39:34;;;;;;;5.47;3.45;;;231.20;2252.80;;;;;;5052230;28;20496;-62
2023/04/15 02:42:00;;;;;;;3.63;2.67;;;231.20;2252.80;;;;;;5049106;28;20050;-58
2023/04/15 02:44:26;;;;;;;4.22;1.73;;;231.30;2252.80;;;;;;5043680;28;20112;-59
2023/04/15 02:46:53;;;;;;;3.70;2.08;;;231.30;2252.80;;;;;;5052545;28;20079;-59
2023/04/15 02:49:22;;;;;;;3.17;1.95;;;231.30;2252.80;;;;;;5052492;28;20025;-60
2023/04/15 02:51:48;;;;;;;4.32;2.53;;;231.30;2252.80;;;;;;5051881;28;20040;-59
2023/04/15 02:54:24;;;;;;;2.50;1.40;;;231.30;2252.80;;;;;;5052089;28;20021;-60
2023/04/15 02:56:54;;;;;;;2.45;1.42;;;231.30;2252.80;;;;;;5051719;28;20020;-59
2023/04/15 02:59:20;;;;;;;2.10;1.33;;;231.20;2252.80;;;;;;5051807;28;20017;-63
2023/04/15 03:01:45;;;;;;;3.25;1.48;;;231.30;2252.80;;;;;;5051997;28;20040;-60
2023/04/15 03:04:12;;;;;;;5.80;5.13;;;231.30;2252.80;;;;;;5051788;28;20036;-58
2023/04/15 03:06:37;;;;;;;10.50;6.95;;;231.30;2252.80;;;;;;5052048;28;20025;-59
2023/04/15 03:09:03;;;;;;;14.35;11.15;;;231.30;2252.80;;;;;;5051428;28;20029;-60
2023/04/15 03:11:30;;;;;;;5.63;3.05;;;231.30;2252.80;;;;;;5038759;28;20364;-60
2023/04/15 03:13:57;;;;;;;3.13;1.90;;;231.20;2252.80;;;;;;5051409;28;20028;-62
2023/04/15 03:16:23;;;;;;;2.25;1.60;;;231.20;2252.80;;;;;;5051724;28;20021;-60
2023/04/15 03:18:48;;;;;;;3.05;1.45;;;231.20;2252.80;;;;;;5051478;28;20047;-59
2023/04/15 03:21:14;;;;;;;2.67;1.60;;;231.20;2252.80;;;;;;5051549;28;20063;-60
2023/04/15 03:23:40;;;;;;;3.90;2.08;;;231.20;2252.80;;;;;;5051377;28;20032;-59
2023/04/15 03:26:05;;;;;;;3.42;1.48;;;231.20;2252.80;;;;;;5051327;28;20447;-59
2023/04/15 03:28:31;;;;;;;4.40;1.73;;;231.20;2252.80;;;;;;5050642;28;20124;-67
2023/04/15 03:30:58;;;;;;;6.13;2.08;;;231.30;2252.80;;;;;;5051176;28;20482;-59
2023/04/15 03:33:23;;;;;;;5.43;3.38;;;231.20;2252.80;;;;;;5051149;28;20033;-60
2023/04/15 03:35:52;;;;;;;6.70;4.22;;;231.10;2252.80;;;;;;5051488;28;20025;-60
2023/04/15 03:38:18;;;;;;;8.32;3.65;;;230.90;2252.80;;;;;;5038331;28;20025;-60
2023/04/15 03:40:45;;;;;;;5.25;3.20;;;230.70;2252.80;;;;;;5051413;28;20090;-59
2023/04/15 03:43:11;;;;;;;5.47;4.07;;;230.80;2252.80;;;;;;5051426;28;20414;-59
2023/04/15 03:45:37;;;;;;;5.13;3.15;;;230.90;2252.80;;;;;;5043343;28;20134;-59
2023/04/15 03:48:02;;;;;;;8.68;3.20;;;230.90;2252.80;;;;;;5045267;28;20100;-59
2023/04/15 03:50:28;;;;;;;3.72;2.00;;;230.90;2252.80;;;;;;5038831;28;20089;-61
2023/04/15 03:52:54;;;;;;;4.07;2.20;;;230.90;2252.80;;;;;;5051188;28;20029;-61
2023/04/15 03:55:20;;;;;;;5.90;3.13;;;230.90;2252.80;;;;;;5050795;28;20024;-60
2023/04/15 03:57:46;;;;;;;6.38;3.03;;;231.00;2252.80;;;;;;5049392;28;20035;-66
2023/04/15 04:00:11;;;;;;;6.45;3.67;;;230.80;2252.80;;;;;;5051088;28;20025;-60
2023/04/15 04:02:37;;;;;;;9.52;4.38;;;230.80;2252.80;;;;;;5050735;28;20024;-68
2023/04/15 04:05:03;;;;;;;8.85;3.13;;;230.80;2252.80;;;;;;5050926;28;20032;-62
2023/04/15 04:07:30;;;;;;;6.65;3.55;;;230.90;2252.80;;;;;;5050837;28;20029;-58
2023/04/15 04:10:00;;;;;;;8.73;3.05;;;230.90;2252.80;;;;;;5050799;28;20036;-57
2023/04/15 04:12:25;;;;;;;5.82;2.95;;;230.80;2252.80;;;;;;5050267;28;20075;-59
2023/04/15 04:14:51;;;;;;;5.10;3.03;;;230.80;2252.80;;;;;;5050855;28;20017;-61
2023/04/15 04:17:17;;;;;;;6.07;4.47;;;230.90;2252.80;;;;;;5050508;28;20044;-65
2023/04/15 04:19:43;;;;;;;6.90;5.50;;;230.90;2252.80;;;;;;5050469;28;20029;-60
2023/04/15 04:22:08;;;;;;;17.05;13.30;;;230.90;2252.80;;;;;;5050237;28;20032;-59
2023/04/15 04:24:34;;;;;;;15.25;11.35;;;231.00;2252.80;;;;;;5050076;28;20055;-64
2023/04/15 04:27:00;;;;;;;16.42;12.68;;;231.10;2252.80;;;;;;5049996;28;20029;-61
2023/04/15 04:29:25;;;;;;;14.82;8.45;;;231.30;2252.80;;;;;;5050209;28;20104;-60
2023/04/15 04:31:51;;;;;;;11.90;8.95;;;256.00;2252.80;;;;;;5050217;28;20044;-59
2023/04/15 04:34:17;;;;;;;14.15;7.88;;;256.10;2252.80;;;;;;5050306;28;20029;-60
2023/04/15 04:36:43;;;;;;;9.77;8.25;;;256.20;2252.80;;;;;;5049995;28;20040;-60
2023/04/15 04:39:09;;;;;;;8.70;5.95;;;256.40;2252.80;;;;;;5049953;28;20531;-65
2023/04/15 04:41:34;;;;;;;11.15;8.68;;;256.50;2252.80;;;;;;5049416;28;20132;-61
2023/04/15 04:44:00;;;;;;;11.75;7.38;;;256.70;2252.80;;;;;;5042395;28;20049;-59
2023/04/15 04:46:26;;;;;;;26.52;18.83;;;256.60;2252.80;;;;;;5044326;28;20035;-60
2023/04/15 04:48:52;;;;;;;28.48;25.65;;;256.60;2252.80;;;;;;5048720;28;20021;-64
2023/04/15 04:51:18;;;;;;;23.17;17.17;;;256.50;2252.80;;;;;;5043063;28;20523;-65
2023/04/15 04:53:43;;;;;;;23.83;16.55;;;256.70;2252.80;;;;;;5048627;28;20505;-65
2023/04/15 04:56:09;;;;;;;14.20;9.40;;;281.60;2278.40;;;;;;5048678;28;20674;-66
2023/04/15 04:58:35;;;;;;;9.65;5.53;;;281.70;2278.40;;;;;;5044934;28;20112;-61
2023/04/15 05:01:01;;;;;;;32.13;18.45;;;281.80;2278.40;;;;;;5042715;28;20060;-67
2023/04/15 05:03:27;;;;;;;122.65;62.38;;;282.00;2278.40;;;;;;5048858;28;20041;-59
2023/04/15 05:05:53;;;;;;;24.10;16.10;;;282.10;2278.40;;;;;;5048148;28;20140;-59
2023/04/15 05:08:19;;;;;;;21.48;15.85;;;281.70;2278.40;;;;;;5048594;28;20032;-60
2023/04/15 05:10:45;;;;;;;21.40;13.05;;;281.80;2278.40;;;;;;5048410;28;20036;-65
2023/04/15 05:13:11;;;;;;;31.58;22.42;;;281.90;2278.40;;;;;;5048733;28;20029;-59
2023/04/15 05:15:40;;;;;;;17.60;12.75;;;281.90;2278.40;;;;;;5048558;28;20349;-60
2023/04/15 05:18:05;;;;;;;14.00;10.38;;;282.00;2278.40;;;;;;5048432;28;20383;-59
2023/04/15 05:20:31;;;;;;;37.67;28.85;;;282.30;2278.40;;;;;;5048657;28;20147;-61
2023/04/15 05:22:57;;;;;;;166.02;100.47;;;281.90;2278.40;;;;;;5048618;28;20714;-60
2023/04/15 05:25:22;;;;;;;42.17;29.23;;;281.80;2278.40;;;;;;5048210;28;20115;-60
2023/04/15 05:27:48;;;;;;;39.78;24.70;;;281.90;2278.40;;;;;;5048925;28;20028;-60
2023/04/15 05:30:14;;;;;;;41.03;29.17;;;307.70;2304.00;;;;;;5047864;28;20025;-60
2023/04/15 05:32:40;;;;;;;43.78;31.00;;;307.90;2304.00;;;;;;5048646;28;20031;-64
2023/04/15 05:35:06;;;;;;;44.28;27.30;;;307.50;2304.00;;;;;;5048300;28;20061;-60
2023/04/15 05:37:32;;;;;;;55.83;34.20;;;307.20;2304.00;;;;;;5048107;28;20028;-60
2023/04/15 05:39:58;;;;;;;49.08;34.80;;;307.40;2304.00;;;;;;5047969;28;20051;-59
2023/04/15 05:42:23;;;;;;;155.90;116.20;;;307.20;2304.00;;;;;;5048566;28;20497;-59
2023/04/15 05:44:49;;;;;;;87.03;64.13;;;308.10;2304.00;;;;;;5048204;28;20028;-59
2023/04/15 05:47:15;;;;;;;30.17;22.60;;;435.80;1920.00;;;;;;5048165;28;20029;-66
2023/04/15 05:49:41;;;;;;;16.13;11.05;;;486.60;1664.00;;;;;;5048461;28;20029;-60
2023/04/15 05:52:07;;;;;;;32.95;25.67;;;512.70;1510.40;;;;;;5047713;28;20087;-66
2023/04/15 05:54:34;;;;;;;12.43;9.10;;;564.00;1433.60;;;;;;5047961;28;20025;-58
2023/04/15 05:57:00;;;;;;;14.88;11.43;;;614.70;1331.20;;;;;;5044666;28;20033;-61
2023/04/15 05:59:27;;;;;;;19.25;13.52;;;615.00;1305.60;;;;;;5047763;28;20029;-61
2023/04/15 06:01:52;;;;;;;15.85;11.55;;;665.70;1254.40;;;;;;5047653;28;20029;-59
2023/04/15 06:04:18;;;;;;;6.80;5.57;;;665.90;1203.20;;;;;;5048233;28;20083;-59
2023/04/15 06:06:44;;;;;;;10.20;7.78;;;691.30;1177.60;;;;;;5047695;28;20048;-59
2023/04/15 06:09:10;;;;;;;21.98;15.80;;;665.90;1177.60;;;;;;5038161;28;20025;-60
2023/04/15 06:11:35;;;;;;;20.00;15.07;;;640.30;1203.20;;;;;;5027993;28;20107;-59
2023/04/15 06:14:01;;;;;;;25.42;18.80;;;640.90;1177.60;;;;;;5028082;28;20404;-59
2023/04/15 06:16:27;;;;;;;27.20;22.88;;;691.50;1126.40;;;;;;5027574;28;20038;-58
2023/04/15 06:18:53;;;;;;;18.75;16.80;;;717.20;1126.40;;;;;;5027913;28;20447;-59
2023/04/15 06:21:19;;;;;;;26.15;23.13;;;717.20;1100.80;;;;;;5028015;28;20057;-66
2023/04/15 06:23:45;;;;;;;12.48;11.18;;;742.80;1100.80;;;;;;5026314;28;20029;-62
2023/04/15 06:26:10;;;;;;;9.68;8.73;;;742.80;1075.20;;;;;;5024678;28;20029;-60
2023/04/15 06:28:36;;;;;;;14.70;13.27;;;768.00;1075.20;;;;;;5031882;28;20036;-62
2023/04/15 06:31:02;;;;;;;12.27;10.43;;;768.50;1049.60;;;;;;5033571;28;20037;-61
2023/04/15 06:33:28;;;;;;;24.67;22.30;;;794.20;1024.00;;;;;;5045697;28;20151;-64
2023/04/15 06:35:54;;;;;;;22.38;20.27;;;819.30;998.40;;;;;;5045915;28;20116;-60
2023/04/15 06:38:20;;;;;;;10.20;9.40;;;819.60;998.40;;;;;;5045410;28;20063;-61
2023/04/15 06:40:45;;;;;;;11.75;10.52;;;819.50;972.80;;;;;;5040076;28;20672;-62
2023/04/15 06:43:11;;;;;;;6.78;6.28;;;819.20;998.40;;;;;;5037041;28;20029;-62
2023/04/15 06:45:37;;;;;;;10.85;9.95;;;819.60;972.80;;;;;;5034089;28;20029;-60
2023/04/15 06:48:03;;;;;;;9.60;8.80;;;794.50;972.80;;;;;;5040449;28;20037;-61
2023/04/15 06:50:29;;;;;;;8.30;7.60;;;819.60;972.80;;;;;;5037921;28;20028;-61
2023/04/15 06:52:55;;;;;;;8.60;7.85;;;820.00;972.80;;;;;;5025854;28;20140;-65
2023/04/15 06:55:21;;;;;;;15.48;14.32;;;845.70;947.20;;;;;;5030836;28;20052;-61
2023/04/15 06:57:46;;;;;;;11.18;10.20;;;870.70;947.20;;;;;;5048696;28;20033;-62
2023/04/15 07:00:13;;;;;;;12.05;11.00;;;;;;;;;;5048342;28;20052;-61
2023/04/15 07:02:39;;;;;;;9.88;9.02;;;845.10;947.20;;;;;;5043835;28;20036;-67
2023/04/15 07:05:06;;;;;;;9.55;8.65;;;870.50;947.20;;;;;;5037441;28;20133;-62
2023/04/15 07:07:32;;;;;;;10.15;9.02;;;845.20;947.20;;;;;;5039023;28;20120;-61
2023/04/15 07:09:57;;;;;;;7.40;6.78;;;845.70;921.60;;;;;;5033519;28;20107;-64
2023/04/15 07:12:23;;;;;;;14.20;12.95;;;871.30;921.60;;;;;;5036582;28;20045;-61
2023/04/15 07:14:49;;;;;;;19.80;17.80;;;896.20;896.00;;;;;;5040900;28;20024;-64
2023/04/15 07:17:15;;;;;;;20.92;18.90;;;896.60;870.40;;;;;;5051464;28;20032;-66
2023/04/15 07:19:40;;;;;;;31.65;25.92;;;922.00;896.00;;;;;;5052439;28;20025;-65
2023/04/15 07:22:06;;;;;;;64.75;55.60;;;896.50;870.40;;;;;;5051510;28;20463;-61
2023/04/15 07:24:32;;;;;;;45.17;41.53;;;871.30;896.00;;;;;;5051488;28;20380;-65
2023/04/15 07:26:58;;;;;;;59.03;54.45;;;896.70;870.40;;;;;;5050119;28;20028;-61
2023/04/15 07:29:25;;;;;;;54.65;50.05;;;;;;;;;;5051631;28;20032;-61
2023/04/15 07:31:50;;;;;;;45.75;42.03;;;896.60;896.00;;;;;;5051080;28;20390;-66
2023/04/15 07:34:19;;;;;;;79.85;72.60;;;921.80;896.00;;;;;;5050970;28;20037;-67
2023/04/15 07:36:49;;;;;;;41.00;37.03;;;921.70;896.00;;;;;;5049075;28;20392;-66
2023/04/15 07:39:15;;;;;;;86.63;78.15;;;896.90;870.40;;;;;;5042187;28;20083;-66
2023/04/15 07:41:41;;;;;;;24.00;22.08;;;896.80;870.40;;;;;;5031334;28;20083;-62
2023/04/15 07:44:07;;;;;;;48.63;44.83;;;896.00;896.00;;;;;;5039862;28;20056;-62
2023/04/15 07:46:32;;;;;;;36.13;33.30;;;871.10;896.00;;;;;;5051108;28;20480;-64
2023/04/15 07:48:58;;;;;;;14.35;13.13;;;896.80;870.40;;;;;;5045599;28;20057;-61
2023/04/15 07:51:24;;;;;;;15.23;14.00;;;922.10;896.00;;;;;;5039557;28;20056;-65
2023/04/15 07:53:50;;;;;;;12.38;11.48;;;896.90;870.40;;;;;;5050042;28;20379;-63
2023/04/15 07:56:15;;;;;;;17.13;15.90;;;871.30;896.00;;;;;;5041393;28;20112;-65
2023/04/15 07:58:42;;;;;;;25.40;23.60;;;896.40;870.40;;;;;;5032661;28;20022;-65
2023/04/15 08:01:08;;;;;;;11.02;10.13;;;896.90;870.40;;;;;;5040721;28;20034;-61
2023/04/15 08:03:34;;;;;;;11.25;10.35;;;947.50;870.40;;;;;;5030326;28;20028;-63
2023/04/15 08:06:00;;;;;;;7.45;6.95;;;922.40;870.40;;;;;;5030353;28;20045;-66
2023/04/15 08:08:26;;;;;;;5.15;4.75;;;896.60;870.40;;;;;;5030633;28;20026;-62
2023/04/15 08:10:51;;;;;;;4.63;4.15;;;871.00;896.00;;;;;;5042720;28;20037;-63
2023/04/15 08:13:17;;;;;;;15.40;13.90;;;845.60;921.60;;;;;;5044423;28;20041;-63
2023/04/15 08:15:43;;;;;;;11.15;10.15;;;819.90;921.60;;;;;;5030367;28;20064;-63
2023/04/15 08:18:09;;;;;;;4.85;4.35;;;768.60;998.40;;;;;;5043744;28;20104;-65
2023/04/15 08:20:35;;;;;;;4.43;4.13;;;768.30;998.40;;;;;;5043348;28;20025;-63
2023/04/15 08:23:02;;;;;;;7.35;6.63;;;768.30;998.40;;;;;;5050566;28;20021;-63
2023/04/15 08:25:28;;;;;;;9.95;8.90;;;768.60;998.40;;;;;;5049726;28;20086;-64
2023/04/15 08:27:56;;;;;;;10.27;9.18;;;819.40;947.20;;;;;;5050340;28;20062;-66
2023/04/15 08:30:22;;;;;;;4.18;3.88;;;819.80;921.60;;;;;;5048926;28;20044;-62
2023/04/15 08:32:49;;;;;;;8.82;8.02;;;819.20;921.60;;;;;;5050073;28;20029;-63
2023/04/15 08:35:15;;;;;;;10.50;8.75;;;819.30;947.20;;;;;;5030153;28;20072;-62
2023/04/15 08:37:41;;;;;;;9.98;8.95;;;793.60;972.80;;;;;;5045139;28;20049;-67
2023/04/15 08:40:08;;;;;;;137.38;119.40;;;768.20;972.80;;;;;;5046314;28;20086;-61
2023/04/15 08:42:43;;;;;;;23.08;16.98;;;742.60;1049.60;;;;;;5050175;28;20035;-62
2023/04/15 08:45:10;;;;;;;213.25;167.85;;;691.60;1049.60;;;;;;5048152;28;20021;-62
2023/04/15 08:47:40;;;;;;;287.80;208.20;;;640.70;1126.40;;;;;;5040451;28;20064;-61
2023/04/15 08:50:09;;;;;;;29.35;20.15;;;665.60;1100.80;;;;;;5045364;28;20034;-63
2023/04/15 08:52:36;;;;;;;37.30;28.85;;;615.10;1177.60;;;;;;5029575;28;20495;-62
2023/04/15 08:55:02;;;;;;;7.55;3.45;;;614.40;1177.60;;;;;;5031085;28;20044;-67
2023/04/15 08:57:28;;;;;;;337.42;296.58;;;589.20;1228.80;;;;;;5029391;28;20063;-62
2023/04/15 08:59:57;;;;;;;97.65;78.93;;;589.30;1203.20;;;;;;5045833;28;20040;-61
2023/04/15 09:02:25;;;;;;;222.13;197.98;;;589.30;1228.80;;;;;;5048137;28;20119;-61
2023/04/15 09:04:50;;;;;;;79.82;71.72;;;564.10;1203.20;;;;;;5036401;28;20412;-62
2023/04/15 09:07:16;;;;;;;4.10;2.72;;;564.10;1228.80;;;;;;5049725;28;20156;-63
2023/04/15 09:09:42;;;;;;;2.25;1.63;;;564.10;1228.80;;;;;;5035630;28;20025;-61
2023/04/15 09:12:09;;;;;;;11.98;9.77;;;563.70;1254.40;;;;;;5031797;28;20563;-62
2023/04/15 09:14:35;;;;;;;22.17;19.88;;;564.10;1254.40;;;;;;5033007;28;20029;-62
2023/04/15 09:17:04;;;;;;;23.02;20.55;;;588.90;1254.40;;;;;;5046164;28;20025;-62
2023/04/15 09:19:32;;;;;;;32.35;29.30;;;589.20;1254.40;;;;;;5049762;28;20028;-63
2023/04/15 09:21:58;;;;;;;15.23;12.80;;;589.70;1203.20;;;;;;5050448;28;20524;-61
2023/04/15 09:24:25;;;;;;;7.97;6.38;;;589.60;1203.20;;;;;;5054015;28;20370;-62
2023/04/15 09:26:54;;;;;;;3.40;1.92;;;589.20;1203.20;;;;;;5052520;28;20027;-64
2023/04/15 09:29:23;;;;;;;3.78;1.90;;;564.10;1254.40;;;;;;5053352;28;20020;-60
2023/04/15 09:31:49;;;;;;;74.32;66.60;;;564.10;1228.80;;;;;;5052750;28;20079;-62
2023/04/15 09:34:15;;;;;;;6.18;4.25;;;564.10;1254.40;;;;;;5052941;28;20033;-62
2023/04/15 09:36:55;;;;;;;3.78;2.33;;;588.90;1228.80;;;;;;5053265;28;20029;-62
2023/04/15 09:39:20;;;;;;;5.95;4.47;;;589.00;1228.80;;;;;;5053127;28;20021;-62
2023/04/15 09:41:46;;;;;;;3.95;2.20;;;563.90;1254.40;;;;;;5052652;28;20044;-62
2023/04/15 09:44:25;;;;;;;33.95;25.58;;;563.70;1254.40;;;;;;5053063;28;20342;-61
2023/04/15 09:46:51;;;;;;;16.33;11.18;;;563.80;1254.40;;;;;;5052777;28;20470;-62
2023/04/15 09:49:16;;;;;;;6.05;3.10;;;564.00;1280.00;;;;;;5052702;28;20040;-64
2023/04/15 09:51:43;;;;;;;2.20;1.50;;;563.70;1280.00;;;;;;5052604;28;20033;-65
2023/04/15 09:54:09;;;;;;;4.03;2.75;;;563.60;1280.00;;;;;;5052948;28;20032;-63
2023/04/15 09:56:37;;;;;;;3.83;2.83;;;563.60;1305.60;;;;;;5052540;28;20039;-68
2023/04/15 09:59:04;;;;;;;7.75;6.60;;;563.60;1228.80;;;;;;5052973;28;20052;-65
2023/04/15 10:01:30;;;;;;;9.68;7.30;;;563.30;1305.60;;;;;;5052854;28;20032;-62
2023/04/15 10:03:57;;;;;;;6.50;5.00;;;538.50;1280.00;;;;;;5052465;28;20029;-61
2023/04/15 10:06:26;;;;;;;3.40;2.00;;;538.20;1305.60;;;;;;5052454;28;20025;-61
2023/04/15 10:08:54;;;;;;;3.67;2.85;;;538.10;1331.20;;;;;;5048200;28;20029;-60
2023/04/15 10:11:22;;;;;;;9.00;7.28;;;538.50;1280.00;;;;;;5031550;28;20500;-63
2023/04/15 10:13:49;;;;;;;6.90;3.58;;;563.50;1228.80;;;;;;5047381;28;20032;-60
2023/04/15 10:16:18;;;;;;;26.23;3.92;;;563.40;1228.80;;;;;;5047971;28;20036;-62
2023/04/15 10:18:45;;;;;;;4.60;2.25;;;563.60;1228.80;;;;;;5046305;28;20025;-65
2023/04/15 10:21:12;;;;;;;22.00;13.93;;;563.60;1254.40;;;;;;5047809;28;20036;-64
2023/04/15 10:23:39;;;;;;;50.60;33.75;;;563.80;1254.40;;;;;;5047946;28;20454;-61
2023/04/15 10:26:06;;;;;;;9.05;3.47;;;563.60;1203.20;;;;;;5047901;28;20021;-63
2023/04/15 10:28:32;;;;;;;7.63;5.78;;;563.90;1280.00;;;;;;5045540;28;20140;-64
2023/04/15 10:30:58;;;;;;;6.93;4.22;;;564.00;1254.40;;;;;;5047403;28;20119;-61
2023/04/15 10:33:24;;;;;;;3.50;1.50;;;563.50;1280.00;;;;;;5046727;28;20036;-61
2023/04/15 10:35:53;;;;;;;22.45;16.92;;;563.60;1280.00;;;;;;5048062;28;20116;-60
2023/04/15 10:38:33;;;;;;;9.25;7.35;;;563.60;1228.80;;;;;;5048818;28;20056;-62
2023/04/15 10:41:36;;;;;;;5.30;4.03;;;563.50;1254.40;;;;;;5051762;28;20048;-62
2023/04/15 10:44:03;;;;;;;6.30;4.40;;;563.30;1280.00;;;;;;5049550;28;20040;-61
2023/04/15 10:46:37;;;;;;;9.95;6.50;;;538.50;1254.40;;;;;;5049085;28;20056;-62
2023/04/15 10:49:11;;;;;;;10.57;7.47;;;563.30;1280.00;;;;;;5049211;28;20044;-62
2023/04/15 10:51:41;;;;;;;11.60;4.40;;;563.70;1228.80;;;;;;5048827;28;20052;-65
2023/04/15 10:54:16;;;;;;;10.80;6.38;;;564.00;1254.40;;;;;;5048394;28;20075;-63
2023/04/15 10:56:43;;;;;;;6.63;3.10;;;563.90;1254.40;;;;;;5049131;28;20024;-66
2023/04/15 10:59:09;;;;;;;10.50;5.78;;;563.60;1254.40;;;;;;5049414;28;20390;-63
2023/04/15 11:02:12;;;;;;;12.45;8.40;;;563.70;1254.40;;;;;;5048719;28;20025;-64
2023/04/15 11:04:57;;;;;;;5.57;4.07;;;563.90;1305.60;;;;;;5049117;28;20045;-61
2023/04/15 11:07:53;;;;;;;3.20;2.10;;;563.40;1254.40;;;;;;5022611;28;20034;-62
2023/04/15 11:10:25;;;;;;;3.58;2.72;;;563.40;1254.40;;;;;;4970133;28;20520;-63
2023/04/15 11:12:53;;;;;;;6.07;3.13;;;563.60;1254.40;;;;;;4970022;28;20638;-62
2023/04/15 11:15:43;;;;;;;6.85;4.00;;;563.90;1280.00;;;;;;4969156;28;20039;-65
2023/04/15 11:18:15;;;;;;;4.07;2.40;;;564.00;1228.80;;;;;;4981449;28;20391;-62
2023/04/15 11:20:46;;;;;;;4.70;3.03;;;588.90;1177.60;;;;;;4982695;28;20042;-68
2023/04/15 11:23:13;;;;;;;7.63;5.57;;;563.80;1203.20;;;;;;4989647;28;20026;-63
2023/04/15 11:25:40;;;;;;;4.10;2.58;;;563.70;1203.20;;;;;;4987013;28;20117;-63
2023/04/15 11:28:06;;;;;;;5.63;4.60;;;563.60;1203.20;;;;;;4989903;28;20045;-62
2023/04/15 11:30:36;;;;;;;3.10;2.10;;;563.60;1228.80;;;;;;4989599;28;20030;-62
2023/04/15 11:33:04;;;;;;;4.53;2.05;;;563.60;1228.80;;;;;;4981838;28;20053;-61
2023/04/15 11:35:30;;;;;;;3.85;2.95;;;563.30;1203.20;;;;;;4982752;28;20030;-63
2023/04/15 11:37:57;;;;;;;3.90;2.80;;;563.30;1254.40;;;;;;4989362;28;20034;-62
2023/04/15 11:40:27;;;;;;;3.17;1.90;;;563.60;1203.20;;;;;;4989818;28;20039;-60
2023/04/15 11:43:07;;;;;;;2.83;1.60;;;563.30;1228.80;;;;;;4976260;28;20030;-62
2023/04/15 11:45:34;;;;;;;3.10;2.10;;;563.40;1254.40;;;;;;4991700;28;20503;-62
2023/04/15 11:48:10;;;;;;;5.10;3.83;;;563.40;1254.40;;;;;;5051077;28;20105;-61
2023/04/15 11:50:39;;;;;;;6.47;2.50;;;563.90;1203.20;;;;;;5038525;28;20037;-62
2023/04/15 11:53:06;;;;;;;4.10;2.65;;;564.00;1203.20;;;;;;5031038;28;20017;-62
2023/04/15 11:55:42;;;;;;;2.80;2.10;;;588.80;1152.00;;;;;;5043335;28;20017;-65
2023/04/15 11:58:19;;;;;;;6.47;4.28;;;564.10;1177.60;;;;;;5018962;28;20064;-64
2023/04/15 12:00:59;;;;;;;5.00;2.85;;;564.10;1152.00;;;;;;5031310;28;20057;-64
2023/04/15 12:03:25;;;;;;;2.83;1.88;;;589.00;1126.40;;;;;;5037058;28;20033;-62
2023/04/15 12:06:07;;;;;;;3.15;1.63;;;564.00;1228.80;;;;;;5049951;28;20109;-61
2023/04/15 12:08:51;;;;;;;2.60;1.60;;;563.60;1203.20;;;;;;5042977;28;20033;-61
2023/04/15 12:11:30;;;;;;;2.78;1.88;;;563.30;1228.80;;;;;;5028867;28;20037;-64